Time;durP1;ratioP1;P1;durP2;ratioP2;P2;SDS_P1;SDS_P2;PMS_P1;PMS_P2;Temp;Humidity;BMP_temperature;BMP_pressure;BME280_temperature;BME280_humidity;BME280_pressure;Samples;Min_cycle;Max_cycle;Signal;HPM_P1;HPM_P2
2022/07/25 07:59:12;;;;;;;4.80;3.22;;;;;;;22.83;66.14;100714.09;5190119;27;5031298;-80
2022/07/25 08:01:43;;;;;;;4.18;2.65;;;;;;;22.66;66.41;100717.41;5343631;28;20403;-81
2022/07/25 08:04:15;;;;;;;6.25;3.90;;;;;;;22.74;66.56;100721.97;5343769;28;20059;-80
2022/07/25 08:06:48;;;;;;;5.63;2.35;;;;;;;22.70;66.99;100721.09;5344253;27;20068;-79
2022/07/25 08:09:19;;;;;;;3.88;2.30;;;;;;;22.70;66.92;100712.59;5342612;27;20050;-79
2022/07/25 08:11:51;;;;;;;3.75;2.47;;;;;;;22.81;66.56;100719.28;5343477;28;20088;-80
2022/07/25 08:14:23;;;;;;;4.70;2.45;;;;;;;22.95;66.10;100724.38;5339846;27;20360;-81
2022/07/25 08:16:56;;;;;;;3.40;2.20;;;;;;;22.73;67.03;100723.19;5344056;27;20037;-81
2022/07/25 08:19:28;;;;;;;8.50;2.65;;;;;;;22.88;67.36;100729.91;5343543;27;20471;-81
2022/07/25 08:22:00;;;;;;;4.18;2.00;;;;;;;22.85;67.60;100722.97;5343499;28;20027;-80
2022/07/25 08:24:31;;;;;;;5.15;1.95;;;;;;;22.66;67.48;100723.06;5343904;27;20019;-80
2022/07/25 08:27:02;;;;;;;5.80;2.63;;;;;;;22.62;67.74;100722.16;5342963;28;20558;-79
2022/07/25 08:29:33;;;;;;;5.15;1.98;;;;;;;22.91;67.55;100717.84;5342979;28;20077;-80
2022/07/25 08:32:05;;;;;;;4.57;2.20;;;;;;;23.11;67.62;100715.78;5343185;28;20019;-79
2022/07/25 08:34:36;;;;;;;3.53;1.80;;;;;;;22.99;67.47;100728.94;5344393;28;20027;-79
2022/07/25 08:37:09;;;;;;;4.93;2.42;;;;;;;23.13;66.99;100736.03;5342095;27;20075;-79
2022/07/25 08:39:40;;;;;;;6.75;1.83;;;;;;;23.28;66.51;100735.06;5326915;27;20433;-79
2022/07/25 08:42:12;;;;;;;7.25;2.38;;;;;;;23.50;65.38;100727.75;5343478;27;20020;-78
2022/07/25 08:44:53;;;;;;;6.03;2.75;;;;;;;23.66;65.41;100736.88;5338253;27;20467;-83
2022/07/25 08:47:25;;;;;;;4.70;1.52;;;;;;;23.85;64.90;100733.16;5325489;28;20035;-81
2022/07/25 08:50:07;;;;;;;2.17;1.50;;;;;;;23.71;65.09;100729.25;5342397;27;20683;-83
2022/07/25 08:52:40;;;;;;;3.67;1.73;;;;;;;23.67;65.13;100726.38;5344782;27;20076;-84
2022/07/25 08:55:18;;;;;;;5.75;2.75;;;;;;;23.71;64.96;100712.28;5343870;27;20509;-81
2022/07/25 08:57:52;;;;;;;7.45;2.08;;;;;;;23.91;64.80;100732.81;5342644;27;20039;-87
2022/07/25 09:00:27;;;;;;;4.70;2.10;;;;;;;24.08;65.20;100730.22;5342877;27;20035;-80
2022/07/25 09:03:00;;;;;;;4.32;2.00;;;;;;;23.96;64.51;100732.47;5343079;27;20436;-78
2022/07/25 09:05:34;;;;;;;7.22;2.42;;;;;;;24.04;64.42;100735.00;5337049;27;20411;-82
2022/07/25 09:08:14;;;;;;;6.20;2.05;;;;;;;24.18;64.32;100737.19;5321311;28;20035;-81
2022/07/25 09:10:48;;;;;;;4.18;2.75;;;;;;;24.17;64.00;100732.75;5326407;28;20031;-79
2022/07/25 09:13:22;;;;;;;3.47;2.45;;;;;;;24.27;64.22;100734.91;5328584;28;20467;-78
2022/07/25 09:15:59;;;;;;;8.57;2.60;;;;;;;24.18;64.44;100740.03;5327755;28;20032;-79
2022/07/25 09:18:32;;;;;;;4.93;2.80;;;;;;;24.32;63.78;100738.59;5327802;28;20031;-79
2022/07/25 09:21:04;;;;;;;5.88;2.00;;;;;;;24.25;64.21;100740.13;5327938;28;20078;-80
2022/07/25 09:23:37;;;;;;;5.95;1.80;;;;;;;24.33;63.27;100745.91;5327930;28;20464;-79
2022/07/25 09:26:13;;;;;;;5.28;2.33;;;;;;;24.06;62.05;100743.13;5327466;28;20024;-78
2022/07/25 09:28:48;;;;;;;5.72;2.65;;;;;;;24.02;62.60;100750.75;5328250;28;20379;-78
2022/07/25 09:31:19;;;;;;;;;;;;;;;24.33;62.50;100745.91;5327505;28;20023;-79
2022/07/25 09:34:00;;;;;;;4.27;2.10;;;;;;;24.44;62.49;100746.81;5326239;28;19918;-81
2022/07/25 09:36:31;;;;;;;3.85;2.20;;;;;;;24.47;62.02;100754.59;5327854;28;20027;-79
2022/07/25 09:39:05;;;;;;;6.10;2.88;;;;;;;24.34;59.98;100776.69;5326876;28;20023;-80
2022/07/25 09:41:40;;;;;;;6.07;2.58;;;;;;;24.21;59.50;100767.63;5327074;28;20024;-79
2022/07/25 09:44:21;;;;;;;6.53;2.35;;;;;;;24.19;60.51;100772.84;5327748;28;20039;-79
2022/07/25 09:46:53;;;;;;;5.55;2.40;;;;;;;24.57;60.49;100773.75;5326962;28;20020;-79
2022/07/25 09:49:35;;;;;;;8.43;2.35;;;;;;;24.75;59.56;100773.97;5327626;28;20024;-79
2022/07/25 09:52:07;;;;;;;8.40;4.47;;;;;;;24.83;58.66;100770.00;5327320;28;20035;-79
2022/07/25 09:54:39;;;;;;;6.18;3.90;;;;;;;24.86;58.68;100776.91;5326601;28;20015;-80
2022/07/25 09:57:10;;;;;;;6.97;2.83;;;;;;;24.74;58.83;100778.78;5326647;28;20126;-79
2022/07/25 09:59:43;;;;;;;6.43;3.08;;;;;;;24.76;59.13;100780.44;5327756;28;20424;-79
2022/07/25 10:02:51;;;;;;;7.28;3.25;;;;;;;24.85;59.68;100778.09;5326504;28;20031;-80
2022/07/25 10:05:22;;;;;;;6.25;3.00;;;;;;;24.89;58.78;100779.78;5314438;28;20096;-80
2022/07/25 10:07:55;;;;;;;20.57;18.43;;;;;;;24.85;58.64;100772.41;5313212;28;20452;-79
2022/07/25 10:10:35;;;;;;;4.10;2.38;;;;;;;24.87;58.12;100775.69;5316084;28;20289;-79
2022/07/25 10:13:10;;;;;;;5.43;2.53;;;;;;;24.92;57.37;100772.50;5325424;28;20035;-79
2022/07/25 10:15:50;;;;;;;5.82;2.38;;;;;;;24.89;58.18;100784.63;5325584;28;20383;-79
2022/07/25 10:18:24;;;;;;;3.50;2.60;;;;;;;24.96;56.94;100776.19;5326738;28;20028;-80
2022/07/25 10:21:16;;;;;;;18.15;14.10;;;;;;;25.00;55.89;100779.88;5325043;28;20082;-80
2022/07/25 10:23:57;;;;;;;3.90;2.50;;;;;;;25.27;55.73;100786.25;5325831;28;20040;-80
2022/07/25 10:26:30;;;;;;;5.30;2.47;;;;;;;25.32;54.33;100780.22;5326427;28;20034;-80
2022/07/25 10:29:07;;;;;;;6.22;2.03;;;;;;;25.39;52.79;100779.47;5326091;28;20027;-79
2022/07/25 10:31:45;;;;;;;5.85;2.55;;;;;;;25.29;53.42;100780.19;5326625;28;20024;-79
2022/07/25 10:34:29;;;;;;;3.75;2.58;;;;;;;25.41;52.21;100773.38;5326400;28;20024;-81
2022/07/25 10:37:17;;;;;;;4.88;2.30;;;;;;;25.45;52.49;100777.88;5325166;28;20024;-79
2022/07/25 10:39:48;;;;;;;4.43;2.95;;;;;;;25.31;52.65;100784.28;5325606;28;20023;-80
2022/07/25 10:42:21;;;;;;;6.25;2.83;;;;;;;25.10;52.72;100786.88;5323431;28;20130;-76
2022/07/25 10:44:56;;;;;;;3.08;1.90;;;;;;;25.12;52.82;100790.94;5325500;28;20028;-75
2022/07/25 10:47:27;;;;;;;3.88;1.98;;;;;;;24.79;54.13;100786.13;5326342;28;20390;-75
2022/07/25 10:50:02;;;;;;;5.90;2.95;;;;;;;24.99;54.37;100788.78;5319120;28;20039;-78
2022/07/25 10:52:40;;;;;;;5.00;2.95;;;;;;;24.80;54.32;100801.13;5323139;28;20019;-79
2022/07/25 10:55:22;;;;;;;8.00;4.35;;;;;;;25.20;53.81;100802.41;5326969;28;20091;-83
2022/07/25 10:58:05;;;;;;;5.50;3.50;;;;;;;25.33;53.67;100786.69;5325284;28;20043;-77
2022/07/25 11:00:43;;;;;;;5.70;2.47;;;;;;;25.51;52.47;100798.19;5325604;28;20085;-74
2022/07/25 11:03:14;;;;;;;5.20;2.38;;;;;;;25.53;51.70;100807.97;5325705;28;20019;-74
2022/07/25 11:05:46;;;;;;;5.90;3.15;;;;;;;25.06;52.20;100818.03;5325749;28;20019;-77
2022/07/25 11:08:18;;;;;;;7.35;3.00;;;;;;;25.27;52.34;100811.78;5325594;28;20123;-80
2022/07/25 11:10:52;;;;;;;7.35;5.90;;;;;;;24.91;53.74;100804.91;5325187;28;20483;-82
2022/07/25 11:13:23;;;;;;;5.85;5.22;;;;;;;24.73;54.54;100805.53;5323558;28;20027;-82
2022/07/25 11:15:57;;;;;;;4.45;3.20;;;;;;;24.73;54.04;100805.53;5327026;28;20085;-83
2022/07/25 11:18:37;;;;;;;4.55;3.53;;;;;;;24.95;54.22;100811.44;5328980;28;20063;-85
2022/07/25 11:21:08;;;;;;;8.55;3.92;;;;;;;24.79;53.15;100808.03;5335561;28;20036;-83
2022/07/25 11:23:39;;;;;;;5.15;3.80;;;;;;;24.88;53.36;100806.50;5333453;28;20085;-84
2022/07/25 11:26:12;;;;;;;6.13;4.47;;;;;;;24.74;53.64;100806.34;5329734;28;20348;-81
2022/07/25 11:28:48;;;;;;;4.88;3.70;;;;;;;24.73;54.35;100814.03;5331000;28;20027;-85
2022/07/25 11:31:21;;;;;;;5.35;4.20;;;;;;;24.67;54.54;100826.09;5327770;28;20103;-80
2022/07/25 11:33:53;;;;;;;8.68;4.68;;;;;;;24.63;54.23;100820.41;5325482;28;20481;-83
2022/07/25 11:36:24;;;;;;;7.47;4.88;;;;;;;24.68;54.63;100830.59;5316098;28;20140;-84
2022/07/25 11:38:55;;;;;;;7.72;4.30;;;;;;;24.55;54.58;100835.69;5323895;28;20027;-82
2022/07/25 11:41:29;;;;;;;7.18;4.35;;;;;;;24.45;55.88;100830.72;5317873;28;20039;-82
2022/07/25 11:44:00;;;;;;;7.18;4.53;;;;;;;24.30;55.72;100835.31;5315869;28;20024;-79
2022/07/25 11:46:41;;;;;;;5.05;4.35;;;;;;;24.46;55.83;100846.50;5305213;28;20024;-85
2022/07/25 11:49:13;;;;;;;5.80;4.35;;;;;;;24.38;55.66;100833.41;5326383;28;20019;-85
2022/07/25 11:51:45;;;;;;;6.03;4.80;;;;;;;24.39;54.92;100829.34;5325406;28;20057;-83
2022/07/25 11:54:17;;;;;;;19.20;17.20;;;;;;;24.58;55.10;100843.41;5325459;28;20046;-84
2022/07/25 11:56:48;;;;;;;9.65;8.68;;;;;;;24.63;54.66;100845.09;5324878;28;20459;-83
2022/07/25 11:59:20;;;;;;;7.10;6.50;;;;;;;24.82;54.87;100838.44;5324408;28;20047;-81
2022/07/25 12:01:51;;;;;;;9.00;5.20;;;;;;;24.36;54.96;100853.63;5324403;28;20481;-78
2022/07/25 12:04:23;;;;;;;10.70;5.85;;;;;;;24.57;55.11;100864.47;5325236;28;20016;-78
2022/07/25 12:07:04;;;;;;;7.47;5.40;;;;;;;24.53;54.47;100863.59;5324502;28;20028;-74
2022/07/25 12:09:35;;;;;;;9.35;5.47;;;;;;;24.52;54.22;100865.63;5324407;28;20066;-75
2022/07/25 12:12:07;;;;;;;6.13;4.45;;;;;;;24.41;54.64;100870.28;5322711;28;20051;-78
2022/07/25 12:14:42;;;;;;;10.65;5.68;;;;;;;24.46;54.73;100869.97;5324194;28;20019;-76
2022/07/25 12:17:14;;;;;;;7.15;5.47;;;;;;;24.35;54.14;100863.34;5324974;28;20027;-74
2022/07/25 12:19:46;;;;;;;5.75;4.72;;;;;;;24.39;54.55;100861.38;5323968;28;20068;-78
2022/07/25 12:22:17;;;;;;;6.70;5.72;;;;;;;24.52;54.63;100856.31;5324003;28;20102;-78
2022/07/25 12:24:48;;;;;;;8.85;5.13;;;;;;;24.70;54.01;100856.53;5324349;28;20094;-78
2022/07/25 12:27:20;;;;;;;9.05;3.45;;;;;;;24.58;53.13;100854.75;5324903;28;20114;-77
2022/07/25 12:29:51;;;;;;;6.82;5.57;;;;;;;24.51;52.55;100869.66;5319525;28;20069;-77
2022/07/25 12:32:23;;;;;;;5.70;3.30;;;;;;;24.27;52.33;100876.59;5304827;28;20095;-79
2022/07/25 12:34:54;;;;;;;16.77;6.55;;;;;;;24.21;52.70;100880.97;5312216;28;20019;-77
2022/07/25 12:37:26;;;;;;;8.07;3.45;;;;;;;24.12;53.17;100894.56;5324404;28;20035;-77
2022/07/25 12:39:57;;;;;;;5.70;3.08;;;;;;;23.74;54.08;100879.38;5324420;28;20133;-77
2022/07/25 12:42:29;;;;;;;7.63;3.30;;;;;;;23.81;54.10;100884.38;5323017;28;20035;-76
2022/07/25 12:45:00;;;;;;;13.88;6.20;;;;;;;23.90;53.96;100882.06;5326924;28;20028;-74
2022/07/25 12:47:32;;;;;;;10.90;3.63;;;;;;;23.84;54.24;100878.75;5328081;28;20028;-74
2022/07/25 12:50:07;;;;;;;8.15;3.65;;;;;;;23.83;54.00;100885.63;5327131;28;20035;-75
2022/07/25 12:52:39;;;;;;;7.25;3.28;;;;;;;23.81;54.35;100893.69;5327881;28;20080;-74
2022/07/25 12:55:14;;;;;;;6.53;3.20;;;;;;;23.86;54.23;100887.69;5328225;28;20028;-79
2022/07/25 12:57:46;;;;;;;6.22;2.95;;;;;;;23.84;54.35;100884.41;5325494;28;20497;-81
2022/07/25 13:00:20;;;;;;;17.13;4.00;;;;;;;23.91;54.18;100877.25;5328705;28;20106;-76
2022/07/25 13:02:54;;;;;;;9.38;4.00;;;;;;;23.93;54.30;100883.31;5327345;28;20034;-76
2022/07/25 13:05:26;;;;;;;4.82;3.08;;;;;;;24.18;54.19;100880.88;5328575;28;20028;-76
2022/07/25 13:07:57;;;;;;;7.05;3.92;;;;;;;24.27;53.17;100885.09;5327831;28;20024;-75
2022/07/25 13:10:28;;;;;;;8.93;3.35;;;;;;;24.39;52.55;100880.38;5326061;28;20084;-76
2022/07/25 13:13:00;;;;;;;8.90;3.80;;;;;;;24.55;52.21;100877.41;5326585;28;20023;-74
2022/07/25 13:15:32;;;;;;;6.63;2.60;;;;;;;24.57;51.76;100870.16;5328062;28;20555;-75
2022/07/25 13:18:04;;;;;;;8.13;2.58;;;;;;;24.71;51.09;100872.34;5327062;28;20035;-75
2022/07/25 13:20:36;;;;;;;8.20;2.90;;;;;;;24.97;50.18;100879.94;5327497;28;20019;-75
2022/07/25 13:23:07;;;;;;;4.10;2.50;;;;;;;25.14;50.09;100876.50;5327907;28;20402;-74
2022/07/25 13:25:38;;;;;;;8.85;2.60;;;;;;;25.21;49.54;100869.28;5327324;28;20034;-74
2022/07/25 13:28:10;;;;;;;7.15;3.40;;;;;;;25.33;48.67;100871.84;5327467;28;20096;-75
2022/07/25 13:30:41;;;;;;;4.47;2.40;;;;;;;25.35;48.14;100866.59;5326706;28;20332;-72
2022/07/25 13:33:12;;;;;;;6.38;2.67;;;;;;;25.29;48.07;100860.47;5326579;28;20032;-78
2022/07/25 13:35:43;;;;;;;9.60;8.23;;;;;;;24.99;49.03;100871.06;5327761;28;20424;-78
2022/07/25 13:38:15;;;;;;;6.13;3.75;;;;;;;24.94;49.34;100881.53;5327008;28;20034;-79
2022/07/25 13:40:46;;;;;;;7.40;2.70;;;;;;;25.01;49.55;100880.81;5327350;28;20019;-80
2022/07/25 13:43:17;;;;;;;7.35;2.97;;;;;;;24.98;49.72;100884.44;5327488;28;20111;-78
2022/07/25 13:45:49;;;;;;;11.88;2.92;;;;;;;24.83;49.81;100891.13;5326792;28;20110;-73
2022/07/25 13:48:20;;;;;;;7.90;2.95;;;;;;;24.83;49.94;100888.31;5327738;28;20459;-84
2022/07/25 13:50:51;;;;;;;5.40;2.30;;;;;;;24.76;50.38;100889.00;5326747;28;20386;-84
2022/07/25 13:53:23;;;;;;;9.27;3.13;;;;;;;24.93;50.49;100891.25;5327143;28;20106;-84
2022/07/25 13:55:55;;;;;;;7.47;3.03;;;;;;;24.91;50.00;100901.34;5327347;28;20023;-81
2022/07/25 13:58:27;;;;;;;5.82;2.65;;;;;;;24.94;49.52;100883.56;5327305;27;20120;-83
2022/07/25 14:00:58;;;;;;;3.95;2.60;;;;;;;25.09;49.87;100885.34;5326649;28;20031;-82
2022/07/25 14:03:30;;;;;;;9.27;3.15;;;;;;;25.34;49.42;100890.53;5327921;28;20081;-83
2022/07/25 14:06:03;;;;;;;7.60;2.75;;;;;;;25.26;48.32;100897.31;5325635;28;20030;-84
2022/07/25 14:08:34;;;;;;;7.88;2.83;;;;;;;25.15;47.90;100889.47;5327082;28;20106;-81
2022/07/25 14:11:07;;;;;;;11.00;3.03;;;;;;;25.50;47.28;100881.75;5326760;28;20122;-84
2022/07/25 14:13:38;;;;;;;8.02;3.50;;;;;;;25.66;46.39;100875.81;5326461;28;20417;-82
2022/07/25 14:16:13;;;;;;;6.85;2.70;;;;;;;25.91;46.21;100874.00;5327907;28;20023;-83
2022/07/25 14:18:44;;;;;;;7.07;2.90;;;;;;;25.86;45.63;100876.41;5326665;27;20111;-81
2022/07/25 14:21:16;;;;;;;14.02;3.00;;;;;;;25.87;45.54;100881.69;5325838;28;20127;-82
2022/07/25 14:23:47;;;;;;;17.08;4.00;;;;;;;25.70;45.75;100885.19;5326559;28;20088;-72
2022/07/25 14:26:18;;;;;;;13.18;4.40;;;;;;;25.58;45.89;100881.41;5328456;28;20389;-86
2022/07/25 14:28:50;;;;;;;14.20;3.38;;;;;;;25.46;46.36;100878.88;5314823;28;20032;-83
2022/07/25 14:31:22;;;;;;;13.07;3.83;;;;;;;25.62;45.55;100880.63;5306389;28;20035;-77
2022/07/25 14:33:53;;;;;;;6.88;2.67;;;;;;;25.56;45.79;100885.84;5325414;28;20061;-80
2022/07/25 14:36:25;;;;;;;8.68;2.47;;;;;;;25.34;46.66;100879.16;5324738;28;20019;-80
2022/07/25 14:38:56;;;;;;;6.90;2.55;;;;;;;25.13;47.19;100886.22;5312750;27;20107;-80
2022/07/25 14:41:28;;;;;;;5.10;2.63;;;;;;;24.97;47.61;100884.81;5324891;28;20028;-81
2022/07/25 14:43:59;;;;;;;5.97;2.80;;;;;;;25.02;47.20;100885.28;5305732;28;20111;-79
2022/07/25 14:46:31;;;;;;;7.28;2.50;;;;;;;25.13;45.82;100883.38;5311931;28;20436;-79
2022/07/25 14:49:02;;;;;;;7.75;2.47;;;;;;;25.21;45.76;100886.31;5325788;28;20047;-81
2022/07/25 14:51:33;;;;;;;6.85;2.50;;;;;;;25.26;45.75;100883.13;5326249;27;20023;-75
2022/07/25 14:54:05;;;;;;;6.88;2.00;;;;;;;25.19;45.10;100880.22;5325941;28;20019;-79
2022/07/25 14:56:38;;;;;;;6.68;2.33;;;;;;;25.36;44.48;100885.25;5325353;28;20023;-78
2022/07/25 14:59:10;;;;;;;6.43;2.78;;;;;;;25.22;44.84;100893.63;5326017;28;20083;-80
2022/07/25 15:01:41;;;;;;;6.90;2.10;;;;;;;25.41;45.10;100890.56;5325203;28;20115;-78
2022/07/25 15:04:13;;;;;;;7.65;3.17;;;;;;;25.29;44.95;100886.00;5327467;28;20020;-83
2022/07/25 15:06:44;;;;;;;4.90;2.13;;;;;;;25.23;44.38;100889.56;5328767;28;20024;-83
2022/07/25 15:09:20;;;;;;;8.63;2.72;;;;;;;25.16;44.44;100891.16;5329027;28;20044;-79
2022/07/25 15:11:51;;;;;;;4.20;2.33;;;;;;;25.05;43.96;100895.03;5330907;28;20378;-82
2022/07/25 15:14:23;;;;;;;7.03;2.42;;;;;;;25.03;43.93;100897.44;5332549;28;20027;-79
2022/07/25 15:16:54;;;;;;;5.78;2.00;;;;;;;24.93;43.97;100891.25;5328502;28;20024;-81
2022/07/25 15:19:26;;;;;;;5.30;2.15;;;;;;;25.13;43.30;100900.41;5325486;28;20035;-81
2022/07/25 15:21:57;;;;;;;7.28;3.08;;;;;;;25.16;43.54;100907.38;5324403;28;20034;-79
2022/07/25 15:24:28;;;;;;;4.68;1.80;;;;;;;25.21;43.15;100898.50;5323857;28;20023;-73
2022/07/25 15:27:00;;;;;;;3.83;1.33;;;;;;;24.99;43.09;100896.59;5322535;28;20107;-77
2022/07/25 15:29:31;;;;;;;6.50;2.25;;;;;;;25.04;43.27;100904.75;5325049;28;20032;-76
2022/07/25 15:32:04;;;;;;;2.92;1.95;;;;;;;25.13;43.24;100906.09;5323437;28;20028;-74
2022/07/25 15:34:35;;;;;;;7.30;2.03;;;;;;;25.02;43.28;100902.28;5307885;28;20107;-74
2022/07/25 15:37:07;;;;;;;6.68;2.22;;;;;;;25.04;43.71;100901.91;5304841;28;20099;-74
2022/07/25 15:39:39;;;;;;;4.20;1.60;;;;;;;25.00;43.03;100899.03;5322660;28;20024;-75
2022/07/25 15:42:10;;;;;;;7.25;1.83;;;;;;;25.10;43.45;100897.50;5324468;28;20026;-75
2022/07/25 15:44:41;;;;;;;8.13;2.13;;;;;;;25.12;43.17;100903.63;5324381;28;20028;-75
2022/07/25 15:47:13;;;;;;;8.85;2.53;;;;;;;25.03;42.47;100906.78;5325331;28;20084;-76
2022/07/25 15:49:44;;;;;;;4.10;1.73;;;;;;;24.87;42.77;100906.16;5325000;28;20039;-74
2022/07/25 15:52:16;;;;;;;5.05;1.63;;;;;;;24.77;43.12;100912.50;5323909;28;20063;-76
2022/07/25 15:54:48;;;;;;;5.38;1.80;;;;;;;24.85;42.65;100911.41;5324883;28;20062;-78
2022/07/25 15:57:19;;;;;;;5.53;1.95;;;;;;;24.89;42.66;100915.09;5325377;28;20024;-79
2022/07/25 15:59:50;;;;;;;4.65;2.45;;;;;;;24.84;42.39;100926.78;5326095;28;20058;-77
2022/07/25 16:02:22;;;;;;;5.22;1.85;;;;;;;24.71;42.46;100921.34;5325600;28;20036;-76
2022/07/25 16:04:53;;;;;;;6.13;5.22;;;;;;;24.71;42.95;100924.19;5324154;28;20028;-70
2022/07/25 16:07:24;;;;;;;6.55;1.33;;;;;;;24.56;42.90;100919.53;5324175;28;20015;-71
2022/07/25 16:09:56;;;;;;;2.65;1.10;;;;;;;24.48;42.94;100912.13;5322904;28;20051;-71
2022/07/25 16:12:27;;;;;;;5.43;1.38;;;;;;;24.51;43.10;100920.66;5323597;28;20363;-71
2022/07/25 16:14:58;;;;;;;5.43;1.38;;;;;;;24.74;43.21;100926.25;5321730;28;20023;-72
2022/07/25 16:17:30;;;;;;;9.35;1.70;;;;;;;24.79;42.55;100922.25;5324577;28;20122;-71
2022/07/25 16:20:03;;;;;;;5.18;1.58;;;;;;;24.78;42.97;100922.66;5326796;28;20055;-71
2022/07/25 16:22:35;;;;;;;3.58;1.70;;;;;;;24.70;42.90;100924.59;5326265;28;20045;-71
2022/07/25 16:25:06;;;;;;;3.50;1.67;;;;;;;24.70;43.40;100933.91;5326958;28;20075;-71
2022/07/25 16:27:38;;;;;;;7.18;1.70;;;;;;;24.31;43.52;100913.47;5328100;27;20020;-71
2022/07/25 16:30:09;;;;;;;6.25;1.65;;;;;;;24.40;43.47;100938.72;5328938;28;20051;-72
2022/07/25 16:32:41;;;;;;;9.45;5.88;;;;;;;24.36;43.95;100935.00;5325980;28;20019;-71
2022/07/25 16:35:12;;;;;;;4.00;1.20;;;;;;;24.42;44.32;100942.00;5316876;28;20022;-72
2022/07/25 16:37:44;;;;;;;10.18;7.65;;;;;;;24.55;44.25;100943.41;5326475;28;20068;-72
2022/07/25 16:40:15;;;;;;;6.25;2.33;;;;;;;24.58;44.08;100939.81;5327354;28;20023;-71
2022/07/25 16:42:48;;;;;;;7.15;2.58;;;;;;;24.72;44.29;100939.19;5326242;28;20102;-71
2022/07/25 16:45:20;;;;;;;3.67;1.63;;;;;;;24.63;44.69;100952.84;5323157;28;20023;-71
2022/07/25 16:47:51;;;;;;;4.15;1.30;;;;;;;24.41;44.30;100943.97;5309347;28;20016;-70
2022/07/25 16:50:22;;;;;;;5.22;1.60;;;;;;;24.29;43.85;100944.22;5327273;28;20069;-68
2022/07/25 16:52:54;;;;;;;5.70;1.33;;;;;;;24.41;44.71;100951.66;5326619;28;20035;-68
2022/07/25 16:55:25;;;;;;;6.43;1.70;;;;;;;24.45;44.53;100952.59;5327652;28;20049;-68
2022/07/25 16:57:57;;;;;;;3.33;1.27;;;;;;;24.50;44.68;100950.22;5328410;28;20513;-69
2022/07/25 17:00:34;;;;;;;6.22;1.58;;;;;;;24.53;44.73;100954.31;5327853;28;20015;-68
2022/07/25 17:03:05;;;;;;;5.22;1.45;;;;;;;24.59;44.58;100963.31;5322620;28;20030;-69
2022/07/25 17:05:37;;;;;;;6.18;1.25;;;;;;;24.62;43.54;100952.03;5324258;28;20020;-68
2022/07/25 17:08:08;;;;;;;7.28;1.30;;;;;;;24.58;44.14;100959.66;5328096;28;20047;-68
2022/07/25 17:10:39;;;;;;;6.30;1.85;;;;;;;24.33;43.46;100961.25;5326131;28;20502;-68
2022/07/25 17:13:11;;;;;;;5.00;1.30;;;;;;;24.13;43.80;100955.69;5325844;28;20431;-69
2022/07/25 17:15:43;;;;;;;5.63;1.35;;;;;;;24.25;43.74;100972.47;5326331;28;20031;-68
2022/07/25 17:18:14;;;;;;;4.88;1.48;;;;;;;24.22;42.92;100976.09;5313895;28;20044;-67
2022/07/25 17:20:46;;;;;;;6.05;1.55;;;;;;;24.23;43.00;100974.06;5308423;28;20024;-69
2022/07/25 17:23:17;;;;;;;6.07;1.30;;;;;;;24.24;42.81;100970.88;5322934;28;20030;-68
2022/07/25 17:25:49;;;;;;;6.25;1.60;;;;;;;24.13;43.19;100972.69;5326237;28;20450;-69
2022/07/25 17:28:22;;;;;;;3.72;1.20;;;;;;;24.06;42.97;100969.75;5326447;28;20031;-69
2022/07/25 17:30:53;;;;;;;5.22;1.83;;;;;;;23.76;43.83;100973.28;5326736;28;20104;-69
